sensor_id;sensor_type;location;lat;lon;timestamp;temperature;humidity
43524;DHT22;29120;52.006;6.020;2023-03-20T00:02:09;11.40;92.70
43524;DHT22;29120;52.006;6.020;2023-03-20T00:04:35;11.40;92.70
43524;DHT22;29120;52.006;6.020;2023-03-20T00:07:00;11.40;92.70
43524;DHT22;29120;52.006;6.020;2023-03-20T00:09:26;11.40;92.70
43524;DHT22;29120;52.006;6.020;2023-03-20T00:11:52;11.30;92.60
43524;DHT22;29120;52.006;6.020;2023-03-20T00:14:20;11.30;92.70
43524;DHT22;29120;52.006;6.020;2023-03-20T00:16:47;11.30;92.70
43524;DHT22;29120;52.006;6.020;2023-03-20T00:19:14;11.30;92.70
43524;DHT22;29120;52.006;6.020;2023-03-20T00:21:40;11.20;92.80
43524;DHT22;29120;52.006;6.020;2023-03-20T00:24:06;11.20;92.90
43524;DHT22;29120;52.006;6.020;2023-03-20T00:26:33;11.10;92.90
43524;DHT22;29120;52.006;6.020;2023-03-20T00:28:59;11.10;92.90
43524;DHT22;29120;52.006;6.020;2023-03-20T00:31:27;11.10;92.90
43524;DHT22;29120;52.006;6.020;2023-03-20T00:33:53;11.10;92.90
43524;DHT22;29120;52.006;6.020;2023-03-20T00:36:20;11.10;93.00
43524;DHT22;29120;52.006;6.020;2023-03-20T00:38:46;11.10;93.10
43524;DHT22;29120;52.006;6.020;2023-03-20T00:41:22;11.10;93.10
43524;DHT22;29120;52.006;6.020;2023-03-20T00:43:49;11.00;93.10
43524;DHT22;29120;52.006;6.020;2023-03-20T00:46:15;11.00;93.20
43524;DHT22;29120;52.006;6.020;2023-03-20T00:48:40;10.90;93.30
43524;DHT22;29120;52.006;6.020;2023-03-20T00:51:07;10.80;93.50
43524;DHT22;29120;52.006;6.020;2023-03-20T00:53:33;10.80;93.70
43524;DHT22;29120;52.006;6.020;2023-03-20T00:55:58;10.70;93.80
43524;DHT22;29120;52.006;6.020;2023-03-20T00:58:24;10.70;93.80
43524;DHT22;29120;52.006;6.020;2023-03-20T01:00:49;10.70;93.80
43524;DHT22;29120;52.006;6.020;2023-03-20T01:03:16;10.70;93.90
43524;DHT22;29120;52.006;6.020;2023-03-20T01:05:42;10.60;93.90
43524;DHT22;29120;52.006;6.020;2023-03-20T01:08:10;10.60;93.90
43524;DHT22;29120;52.006;6.020;2023-03-20T01:10:36;10.60;94.00
43524;DHT22;29120;52.006;6.020;2023-03-20T01:13:01;10.60;94.00
43524;DHT22;29120;52.006;6.020;2023-03-20T01:15:31;10.60;94.00
43524;DHT22;29120;52.006;6.020;2023-03-20T01:17:57;10.60;94.10
43524;DHT22;29120;52.006;6.020;2023-03-20T01:20:23;10.60;94.10
43524;DHT22;29120;52.006;6.020;2023-03-20T01:22:49;10.60;94.10
43524;DHT22;29120;52.006;6.020;2023-03-20T01:25:15;10.60;94.10
43524;DHT22;29120;52.006;6.020;2023-03-20T01:27:42;10.60;94.10
43524;DHT22;29120;52.006;6.020;2023-03-20T01:30:14;10.70;94.00
43524;DHT22;29120;52.006;6.020;2023-03-20T01:32:40;10.70;94.00
43524;DHT22;29120;52.006;6.020;2023-03-20T01:35:10;10.70;94.00
43524;DHT22;29120;52.006;6.020;2023-03-20T01:37:36;10.70;94.00
43524;DHT22;29120;52.006;6.020;2023-03-20T01:40:01;10.70;94.10
43524;DHT22;29120;52.006;6.020;2023-03-20T01:42:27;10.60;94.20
43524;DHT22;29120;52.006;6.020;2023-03-20T01:44:53;10.60;94.30
43524;DHT22;29120;52.006;6.020;2023-03-20T01:47:20;10.50;94.40
43524;DHT22;29120;52.006;6.020;2023-03-20T01:52:30;10.50;94.60
43524;DHT22;29120;52.006;6.020;2023-03-20T01:54:55;10.40;94.60
43524;DHT22;29120;52.006;6.020;2023-03-20T01:57:21;10.40;94.70
43524;DHT22;29120;52.006;6.020;2023-03-20T01:59:53;10.40;94.70
43524;DHT22;29120;52.006;6.020;2023-03-20T02:02:21;10.30;94.80
43524;DHT22;29120;52.006;6.020;2023-03-20T02:04:49;10.20;94.80
43524;DHT22;29120;52.006;6.020;2023-03-20T02:07:15;10.20;94.80
43524;DHT22;29120;52.006;6.020;2023-03-20T02:09:41;10.20;94.80
43524;DHT22;29120;52.006;6.020;2023-03-20T02:12:07;10.20;94.80
43524;DHT22;29120;52.006;6.020;2023-03-20T02:14:33;10.30;94.80
43524;DHT22;29120;52.006;6.020;2023-03-20T02:16:59;10.20;94.90
43524;DHT22;29120;52.006;6.020;2023-03-20T02:19:30;10.20;94.90
43524;DHT22;29120;52.006;6.020;2023-03-20T02:22:10;10.20;95.00
43524;DHT22;29120;52.006;6.020;2023-03-20T02:27:08;10.10;95.00
43524;DHT22;29120;52.006;6.020;2023-03-20T02:40:32;10.10;95.00
43524;DHT22;29120;52.006;6.020;2023-03-20T02:43:09;10.20;95.00
43524;DHT22;29120;52.006;6.020;2023-03-20T02:50:39;10.10;94.70
43524;DHT22;29120;52.006;6.020;2023-03-20T02:53:17;10.00;94.70
43524;DHT22;29120;52.006;6.020;2023-03-20T02:56:10;10.00;94.70
43524;DHT22;29120;52.006;6.020;2023-03-20T02:58:41;10.00;94.30
43524;DHT22;29120;52.006;6.020;2023-03-20T03:01:13;9.90;94.20
43524;DHT22;29120;52.006;6.020;2023-03-20T03:03:49;9.90;94.00
43524;DHT22;29120;52.006;6.020;2023-03-20T03:06:29;9.90;94.00
43524;DHT22;29120;52.006;6.020;2023-03-20T03:11:40;9.90;93.50
43524;DHT22;29120;52.006;6.020;2023-03-20T03:14:08;10.00;93.20
43524;DHT22;29120;52.006;6.020;2023-03-20T03:16:38;9.90;92.90
43524;DHT22;29120;52.006;6.020;2023-03-20T03:19:06;9.90;93.00
43524;DHT22;29120;52.006;6.020;2023-03-20T03:21:33;9.90;93.00
43524;DHT22;29120;52.006;6.020;2023-03-20T03:23:59;9.90;92.90
43524;DHT22;29120;52.006;6.020;2023-03-20T03:26:27;9.90;93.00
43524;DHT22;29120;52.006;6.020;2023-03-20T03:28:59;9.90;92.90
43524;DHT22;29120;52.006;6.020;2023-03-20T03:31:26;9.90;92.70
43524;DHT22;29120;52.006;6.020;2023-03-20T03:33:54;9.90;92.70
43524;DHT22;29120;52.006;6.020;2023-03-20T03:36:24;9.90;92.70
43524;DHT22;29120;52.006;6.020;2023-03-20T03:43:49;9.70;92.60
43524;DHT22;29120;52.006;6.020;2023-03-20T03:48:59;9.50;92.90
43524;DHT22;29120;52.006;6.020;2023-03-20T03:51:27;9.40;93.10
43524;DHT22;29120;52.006;6.020;2023-03-20T03:53:58;9.30;93.30
43524;DHT22;29120;52.006;6.020;2023-03-20T03:56:25;9.30;93.40
43524;DHT22;29120;52.006;6.020;2023-03-20T03:58:52;9.30;93.50
43524;DHT22;29120;52.006;6.020;2023-03-20T04:01:19;9.30;93.60
43524;DHT22;29120;52.006;6.020;2023-03-20T04:03:51;9.30;93.70
43524;DHT22;29120;52.006;6.020;2023-03-20T04:06:18;9.30;93.70
43524;DHT22;29120;52.006;6.020;2023-03-20T04:08:44;9.30;93.80
43524;DHT22;29120;52.006;6.020;2023-03-20T04:11:19;9.30;93.90
43524;DHT22;29120;52.006;6.020;2023-03-20T04:13:46;9.30;94.10
43524;DHT22;29120;52.006;6.020;2023-03-20T04:16:12;9.20;94.10
43524;DHT22;29120;52.006;6.020;2023-03-20T04:18:38;9.20;94.20
43524;DHT22;29120;52.006;6.020;2023-03-20T04:21:04;9.20;94.30
43524;DHT22;29120;52.006;6.020;2023-03-20T04:23:31;9.10;94.40
43524;DHT22;29120;52.006;6.020;2023-03-20T04:25:56;9.00;94.50
43524;DHT22;29120;52.006;6.020;2023-03-20T04:28:21;9.00;94.50
43524;DHT22;29120;52.006;6.020;2023-03-20T04:30:51;8.90;94.60
43524;DHT22;29120;52.006;6.020;2023-03-20T04:33:16;8.90;94.70
43524;DHT22;29120;52.006;6.020;2023-03-20T04:35:42;8.90;94.80
43524;DHT22;29120;52.006;6.020;2023-03-20T04:38:07;8.90;94.90
43524;DHT22;29120;52.006;6.020;2023-03-20T04:40:33;8.80;95.00
43524;DHT22;29120;52.006;6.020;2023-03-20T04:42:58;8.80;95.20
43524;DHT22;29120;52.006;6.020;2023-03-20T04:45:24;8.80;95.20
43524;DHT22;29120;52.006;6.020;2023-03-20T04:47:50;8.80;95.30
43524;DHT22;29120;52.006;6.020;2023-03-20T04:50:15;8.70;95.40
43524;DHT22;29120;52.006;6.020;2023-03-20T04:52:41;8.70;95.40
43524;DHT22;29120;52.006;6.020;2023-03-20T04:57:34;8.70;95.60
43524;DHT22;29120;52.006;6.020;2023-03-20T04:59:59;8.70;95.60
43524;DHT22;29120;52.006;6.020;2023-03-20T05:02:24;8.70;95.70
43524;DHT22;29120;52.006;6.020;2023-03-20T05:04:51;8.70;95.70
43524;DHT22;29120;52.006;6.020;2023-03-20T05:07:16;8.70;95.70
43524;DHT22;29120;52.006;6.020;2023-03-20T05:09:42;8.80;95.70
43524;DHT22;29120;52.006;6.020;2023-03-20T05:12:08;8.80;95.70
43524;DHT22;29120;52.006;6.020;2023-03-20T05:14:33;8.80;95.70
43524;DHT22;29120;52.006;6.020;2023-03-20T05:16:59;8.80;95.70
43524;DHT22;29120;52.006;6.020;2023-03-20T05:19:24;8.80;95.70
43524;DHT22;29120;52.006;6.020;2023-03-20T05:21:50;8.70;95.70
43524;DHT22;29120;52.006;6.020;2023-03-20T05:24:15;8.80;95.80
43524;DHT22;29120;52.006;6.020;2023-03-20T05:26:41;8.70;95.80
43524;DHT22;29120;52.006;6.020;2023-03-20T05:29:06;8.70;95.90
43524;DHT22;29120;52.006;6.020;2023-03-20T05:31:32;8.70;95.90
43524;DHT22;29120;52.006;6.020;2023-03-20T05:33:57;8.60;95.90
43524;DHT22;29120;52.006;6.020;2023-03-20T05:36:23;8.60;95.90
43524;DHT22;29120;52.006;6.020;2023-03-20T05:38:48;8.60;96.00
43524;DHT22;29120;52.006;6.020;2023-03-20T05:41:14;8.60;96.00
43524;DHT22;29120;52.006;6.020;2023-03-20T05:43:40;8.60;96.00
43524;DHT22;29120;52.006;6.020;2023-03-20T05:46:05;8.60;96.10
43524;DHT22;29120;52.006;6.020;2023-03-20T05:48:31;8.60;96.00
43524;DHT22;29120;52.006;6.020;2023-03-20T05:50:56;8.60;96.00
43524;DHT22;29120;52.006;6.020;2023-03-20T05:53:21;8.60;96.00
43524;DHT22;29120;52.006;6.020;2023-03-20T05:55:47;8.60;95.90
43524;DHT22;29120;52.006;6.020;2023-03-20T05:58:12;8.60;95.90
43524;DHT22;29120;52.006;6.020;2023-03-20T06:00:38;8.60;95.90
43524;DHT22;29120;52.006;6.020;2023-03-20T06:03:04;8.60;95.90
43524;DHT22;29120;52.006;6.020;2023-03-20T06:05:31;8.60;95.90
43524;DHT22;29120;52.006;6.020;2023-03-20T06:07:57;8.60;95.90
43524;DHT22;29120;52.006;6.020;2023-03-20T06:10:22;8.60;95.90
43524;DHT22;29120;52.006;6.020;2023-03-20T06:12:48;8.60;95.90
43524;DHT22;29120;52.006;6.020;2023-03-20T06:15:13;8.60;95.90
43524;DHT22;29120;52.006;6.020;2023-03-20T06:17:39;8.50;95.90
43524;DHT22;29120;52.006;6.020;2023-03-20T06:20:04;8.50;95.90
43524;DHT22;29120;52.006;6.020;2023-03-20T06:22:30;8.60;95.90
43524;DHT22;29120;52.006;6.020;2023-03-20T06:24:56;8.60;95.90
43524;DHT22;29120;52.006;6.020;2023-03-20T06:27:22;8.60;95.90
43524;DHT22;29120;52.006;6.020;2023-03-20T06:29:47;8.60;95.80
43524;DHT22;29120;52.006;6.020;2023-03-20T06:32:13;8.70;95.90
43524;DHT22;29120;52.006;6.020;2023-03-20T06:34:39;8.70;95.80
43524;DHT22;29120;52.006;6.020;2023-03-20T06:37:05;8.70;95.70
43524;DHT22;29120;52.006;6.020;2023-03-20T06:39:31;8.80;95.70
43524;DHT22;29120;52.006;6.020;2023-03-20T06:41:56;8.80;95.60
43524;DHT22;29120;52.006;6.020;2023-03-20T06:44:22;8.90;95.70
43524;DHT22;29120;52.006;6.020;2023-03-20T06:46:47;8.90;95.50
43524;DHT22;29120;52.006;6.020;2023-03-20T06:49:13;9.00;95.50
43524;DHT22;29120;52.006;6.020;2023-03-20T06:51:39;9.00;95.50
43524;DHT22;29120;52.006;6.020;2023-03-20T06:54:04;9.00;95.40
43524;DHT22;29120;52.006;6.020;2023-03-20T06:56:30;9.10;95.40
43524;DHT22;29120;52.006;6.020;2023-03-20T06:58:56;9.10;95.40
43524;DHT22;29120;52.006;6.020;2023-03-20T07:01:22;9.10;95.40
43524;DHT22;29120;52.006;6.020;2023-03-20T07:03:47;9.00;95.30
43524;DHT22;29120;52.006;6.020;2023-03-20T07:06:13;9.00;95.30
43524;DHT22;29120;52.006;6.020;2023-03-20T07:08:39;9.00;95.40
43524;DHT22;29120;52.006;6.020;2023-03-20T07:11:05;9.00;95.40
43524;DHT22;29120;52.006;6.020;2023-03-20T07:13:31;8.90;95.40
43524;DHT22;29120;52.006;6.020;2023-03-20T07:15:59;8.90;95.40
43524;DHT22;29120;52.006;6.020;2023-03-20T07:18:25;9.00;95.50
43524;DHT22;29120;52.006;6.020;2023-03-20T07:20:51;9.00;95.40
43524;DHT22;29120;52.006;6.020;2023-03-20T07:23:17;9.00;95.40
43524;DHT22;29120;52.006;6.020;2023-03-20T07:25:42;9.10;95.30
43524;DHT22;29120;52.006;6.020;2023-03-20T07:28:09;9.10;95.20
43524;DHT22;29120;52.006;6.020;2023-03-20T07:30:34;9.10;95.20
43524;DHT22;29120;52.006;6.020;2023-03-20T07:33:00;9.10;95.10
43524;DHT22;29120;52.006;6.020;2023-03-20T07:35:25;9.20;95.10
43524;DHT22;29120;52.006;6.020;2023-03-20T07:37:51;9.10;95.10
43524;DHT22;29120;52.006;6.020;2023-03-20T07:40:16;9.20;95.00
43524;DHT22;29120;52.006;6.020;2023-03-20T07:42:43;9.30;95.00
43524;DHT22;29120;52.006;6.020;2023-03-20T07:45:09;9.40;95.00
43524;DHT22;29120;52.006;6.020;2023-03-20T07:47:34;9.40;94.80
43524;DHT22;29120;52.006;6.020;2023-03-20T07:50:00;9.40;94.70
43524;DHT22;29120;52.006;6.020;2023-03-20T07:52:26;9.30;94.70
43524;DHT22;29120;52.006;6.020;2023-03-20T07:54:51;9.30;94.70
43524;DHT22;29120;52.006;6.020;2023-03-20T07:57:17;9.20;94.70
43524;DHT22;29120;52.006;6.020;2023-03-20T07:59:43;9.20;94.70
43524;DHT22;29120;52.006;6.020;2023-03-20T08:02:13;9.20;94.70
43524;DHT22;29120;52.006;6.020;2023-03-20T08:04:38;9.20;94.70
43524;DHT22;29120;52.006;6.020;2023-03-20T08:07:03;9.20;94.70
43524;DHT22;29120;52.006;6.020;2023-03-20T08:09:29;9.20;94.70
43524;DHT22;29120;52.006;6.020;2023-03-20T08:11:55;9.20;94.60
43524;DHT22;29120;52.006;6.020;2023-03-20T08:14:20;9.20;94.70
43524;DHT22;29120;52.006;6.020;2023-03-20T08:16:46;9.20;94.60
43524;DHT22;29120;52.006;6.020;2023-03-20T08:19:11;9.20;94.60
43524;DHT22;29120;52.006;6.020;2023-03-20T08:21:37;9.30;94.60
43524;DHT22;29120;52.006;6.020;2023-03-20T08:24:03;9.30;94.50
43524;DHT22;29120;52.006;6.020;2023-03-20T08:26:28;9.30;94.40
43524;DHT22;29120;52.006;6.020;2023-03-20T08:28:54;9.30;94.40
43524;DHT22;29120;52.006;6.020;2023-03-20T08:31:20;9.40;94.40
43524;DHT22;29120;52.006;6.020;2023-03-20T08:33:45;9.40;94.30
43524;DHT22;29120;52.006;6.020;2023-03-20T08:36:11;9.40;94.10
43524;DHT22;29120;52.006;6.020;2023-03-20T08:38:39;9.30;94.00
43524;DHT22;29120;52.006;6.020;2023-03-20T08:41:05;9.30;94.10
43524;DHT22;29120;52.006;6.020;2023-03-20T08:43:31;9.30;94.20
43524;DHT22;29120;52.006;6.020;2023-03-20T08:45:56;9.40;94.20
43524;DHT22;29120;52.006;6.020;2023-03-20T08:48:22;9.40;94.10
43524;DHT22;29120;52.006;6.020;2023-03-20T08:50:47;9.50;94.10
43524;DHT22;29120;52.006;6.020;2023-03-20T08:53:13;9.50;93.90
43524;DHT22;29120;52.006;6.020;2023-03-20T08:55:38;9.50;93.90
43524;DHT22;29120;52.006;6.020;2023-03-20T08:58:04;9.50;93.90
43524;DHT22;29120;52.006;6.020;2023-03-20T09:00:30;9.60;93.80
43524;DHT22;29120;52.006;6.020;2023-03-20T09:02:55;9.70;93.70
43524;DHT22;29120;52.006;6.020;2023-03-20T09:05:21;9.70;93.60
43524;DHT22;29120;52.006;6.020;2023-03-20T09:07:46;9.80;93.60
43524;DHT22;29120;52.006;6.020;2023-03-20T09:10:12;9.80;93.20
43524;DHT22;29120;52.006;6.020;2023-03-20T09:12:37;9.80;93.30
43524;DHT22;29120;52.006;6.020;2023-03-20T09:15:03;9.80;93.20
43524;DHT22;29120;52.006;6.020;2023-03-20T09:17:29;9.90;93.20
43524;DHT22;29120;52.006;6.020;2023-03-20T09:19:56;9.90;93.20
43524;DHT22;29120;52.006;6.020;2023-03-20T09:22:21;10.00;93.10
43524;DHT22;29120;52.006;6.020;2023-03-20T09:24:47;10.10;93.00
43524;DHT22;29120;52.006;6.020;2023-03-20T09:27:12;10.10;92.80
43524;DHT22;29120;52.006;6.020;2023-03-20T09:29:38;10.20;92.80
43524;DHT22;29120;52.006;6.020;2023-03-20T09:32:04;10.30;92.60
43524;DHT22;29120;52.006;6.020;2023-03-20T09:34:29;10.30;92.60
43524;DHT22;29120;52.006;6.020;2023-03-20T09:36:55;10.40;92.40
43524;DHT22;29120;52.006;6.020;2023-03-20T09:39:20;10.50;92.30
43524;DHT22;29120;52.006;6.020;2023-03-20T09:41:46;10.40;92.00
43524;DHT22;29120;52.006;6.020;2023-03-20T09:44:36;10.60;92.00
43524;DHT22;29120;52.006;6.020;2023-03-20T09:52:11;10.60;90.90
43524;DHT22;29120;52.006;6.020;2023-03-20T09:54:41;10.60;90.50
43524;DHT22;29120;52.006;6.020;2023-03-20T09:57:19;10.80;90.50
43524;DHT22;29120;52.006;6.020;2023-03-20T09:59:45;10.80;90.30
43524;DHT22;29120;52.006;6.020;2023-03-20T10:02:13;10.80;90.10
43524;DHT22;29120;52.006;6.020;2023-03-20T10:04:40;10.80;90.10
43524;DHT22;29120;52.006;6.020;2023-03-20T10:07:08;10.80;89.40
43524;DHT22;29120;52.006;6.020;2023-03-20T10:09:35;10.80;90.00
43524;DHT22;29120;52.006;6.020;2023-03-20T10:15:00;10.80;90.10
43524;DHT22;29120;52.006;6.020;2023-03-20T10:20:08;10.60;91.00
43524;DHT22;29120;52.006;6.020;2023-03-20T10:22:35;10.50;91.60
43524;DHT22;29120;52.006;6.020;2023-03-20T10:25:05;10.60;92.30
43524;DHT22;29120;52.006;6.020;2023-03-20T10:27:33;10.60;92.50
43524;DHT22;29120;52.006;6.020;2023-03-20T10:32:51;11.10;92.50
43524;DHT22;29120;52.006;6.020;2023-03-20T10:38:12;11.70;92.30
43524;DHT22;29120;52.006;6.020;2023-03-20T10:40:41;11.70;92.00
43524;DHT22;29120;52.006;6.020;2023-03-20T10:45:39;11.50;92.40
43524;DHT22;29120;52.006;6.020;2023-03-20T10:48:09;11.40;92.10
43524;DHT22;29120;52.006;6.020;2023-03-20T10:50:40;11.20;92.00
43524;DHT22;29120;52.006;6.020;2023-03-20T10:53:06;11.10;92.10
43524;DHT22;29120;52.006;6.020;2023-03-20T10:55:41;11.10;92.40
43524;DHT22;29120;52.006;6.020;2023-03-20T10:58:23;11.10;92.50
43524;DHT22;29120;52.006;6.020;2023-03-20T11:00:51;11.10;92.50
43524;DHT22;29120;52.006;6.020;2023-03-20T11:03:21;11.00;93.00
43524;DHT22;29120;52.006;6.020;2023-03-20T11:05:48;10.90;93.30
43524;DHT22;29120;52.006;6.020;2023-03-20T11:08:17;10.80;93.40
43524;DHT22;29120;52.006;6.020;2023-03-20T11:10:46;10.90;93.50
43524;DHT22;29120;52.006;6.020;2023-03-20T11:13:25;11.10;93.30
43524;DHT22;29120;52.006;6.020;2023-03-20T11:15:52;11.40;93.00
43524;DHT22;29120;52.006;6.020;2023-03-20T11:18:17;11.50;91.80
43524;DHT22;29120;52.006;6.020;2023-03-20T11:23:10;11.60;91.70
43524;DHT22;29120;52.006;6.020;2023-03-20T11:25:45;11.60;91.70
43524;DHT22;29120;52.006;6.020;2023-03-20T11:30:44;11.30;91.50
43524;DHT22;29120;52.006;6.020;2023-03-20T11:33:09;11.20;91.70
43524;DHT22;29120;52.006;6.020;2023-03-20T11:35:35;11.10;91.90
43524;DHT22;29120;52.006;6.020;2023-03-20T11:40:38;11.00;91.80
43524;DHT22;29120;52.006;6.020;2023-03-20T11:43:13;10.90;92.20
43524;DHT22;29120;52.006;6.020;2023-03-20T11:45:50;10.90;92.50
43524;DHT22;29120;52.006;6.020;2023-03-20T11:48:22;10.80;92.90
43524;DHT22;29120;52.006;6.020;2023-03-20T11:50:51;10.90;93.00
43524;DHT22;29120;52.006;6.020;2023-03-20T11:58:56;10.60;94.20
43524;DHT22;29120;52.006;6.020;2023-03-20T12:01:22;10.70;94.50
43524;DHT22;29120;52.006;6.020;2023-03-20T12:03:52;10.80;94.60
43524;DHT22;29120;52.006;6.020;2023-03-20T12:06:26;10.90;94.50
43524;DHT22;29120;52.006;6.020;2023-03-20T12:11:23;10.80;94.20
43524;DHT22;29120;52.006;6.020;2023-03-20T12:13:51;10.80;94.30
43524;DHT22;29120;52.006;6.020;2023-03-20T12:16:17;10.70;94.40
43524;DHT22;29120;52.006;6.020;2023-03-20T12:18:50;10.70;94.20
43524;DHT22;29120;52.006;6.020;2023-03-20T12:21:20;10.60;93.90
43524;DHT22;29120;52.006;6.020;2023-03-20T12:26:23;10.50;94.70
43524;DHT22;29120;52.006;6.020;2023-03-20T12:29:25;10.40;95.00
43524;DHT22;29120;52.006;6.020;2023-03-20T12:31:51;10.30;95.10
43524;DHT22;29120;52.006;6.020;2023-03-20T12:37:16;10.40;95.30
43524;DHT22;29120;52.006;6.020;2023-03-20T12:39:50;10.40;95.10
43524;DHT22;29120;52.006;6.020;2023-03-20T12:58:54;10.60;95.10
43524;DHT22;29120;52.006;6.020;2023-03-20T13:11:44;10.50;97.20
43524;DHT22;29120;52.006;6.020;2023-03-20T13:14:19;10.50;97.40
43524;DHT22;29120;52.006;6.020;2023-03-20T13:24:24;10.70;98.40
43524;DHT22;29120;52.006;6.020;2023-03-20T13:29:39;10.70;98.70
43524;DHT22;29120;52.006;6.020;2023-03-20T13:32:24;10.70;99.00
43524;DHT22;29120;52.006;6.020;2023-03-20T13:35:04;10.60;99.00
43524;DHT22;29120;52.006;6.020;2023-03-20T13:37:34;10.60;99.20
43524;DHT22;29120;52.006;6.020;2023-03-20T13:40:10;10.60;99.20
43524;DHT22;29120;52.006;6.020;2023-03-20T13:42:38;10.50;99.40
43524;DHT22;29120;52.006;6.020;2023-03-20T13:45:17;10.40;99.40
43524;DHT22;29120;52.006;6.020;2023-03-20T13:47:45;10.30;99.50
43524;DHT22;29120;52.006;6.020;2023-03-20T13:50:18;10.30;99.70
43524;DHT22;29120;52.006;6.020;2023-03-20T13:52:51;10.30;99.90
43524;DHT22;29120;52.006;6.020;2023-03-20T14:00:25;10.20;99.90
43524;DHT22;29120;52.006;6.020;2023-03-20T14:03:13;10.20;99.90
43524;DHT22;29120;52.006;6.020;2023-03-20T14:05:41;10.20;99.90
43524;DHT22;29120;52.006;6.020;2023-03-20T14:10:54;10.30;99.90
43524;DHT22;29120;52.006;6.020;2023-03-20T14:13:20;10.20;99.90
43524;DHT22;29120;52.006;6.020;2023-03-20T14:15:48;10.20;99.90
43524;DHT22;29120;52.006;6.020;2023-03-20T14:18:16;10.10;99.90
43524;DHT22;29120;52.006;6.020;2023-03-20T14:20:43;10.10;99.90
43524;DHT22;29120;52.006;6.020;2023-03-20T14:23:18;10.10;99.90
43524;DHT22;29120;52.006;6.020;2023-03-20T14:25:44;10.10;99.90
43524;DHT22;29120;52.006;6.020;2023-03-20T14:33:06;10.20;99.90
43524;DHT22;29120;52.006;6.020;2023-03-20T14:36:42;10.10;99.90
43524;DHT22;29120;52.006;6.020;2023-03-20T14:39:08;10.10;99.90
43524;DHT22;29120;52.006;6.020;2023-03-20T14:41:29;10.10;99.90
43524;DHT22;29120;52.006;6.020;2023-03-20T14:47:00;10.00;99.90
43524;DHT22;29120;52.006;6.020;2023-03-20T14:51:55;10.00;99.90
43524;DHT22;29120;52.006;6.020;2023-03-20T14:54:24;10.00;99.90
43524;DHT22;29120;52.006;6.020;2023-03-20T14:56:50;10.00;99.90
43524;DHT22;29120;52.006;6.020;2023-03-20T14:59:19;10.00;99.90
43524;DHT22;29120;52.006;6.020;2023-03-20T15:06:55;9.90;99.90
43524;DHT22;29120;52.006;6.020;2023-03-20T15:09:21;9.90;99.90
43524;DHT22;29120;52.006;6.020;2023-03-20T15:11:48;9.80;99.90
43524;DHT22;29120;52.006;6.020;2023-03-20T15:14:36;9.80;99.90
43524;DHT22;29120;52.006;6.020;2023-03-20T15:17:01;9.90;99.90
43524;DHT22;29120;52.006;6.020;2023-03-20T15:19:27;9.90;99.90
43524;DHT22;29120;52.006;6.020;2023-03-20T15:21:53;10.00;99.90
43524;DHT22;29120;52.006;6.020;2023-03-20T15:26:44;10.00;99.90
43524;DHT22;29120;52.006;6.020;2023-03-20T15:29:11;10.00;99.90
43524;DHT22;29120;52.006;6.020;2023-03-20T15:31:38;10.00;99.90
43524;DHT22;29120;52.006;6.020;2023-03-20T15:34:08;9.90;99.90
43524;DHT22;29120;52.006;6.020;2023-03-20T15:36:38;9.80;99.90
43524;DHT22;29120;52.006;6.020;2023-03-20T15:39:05;9.90;99.90
43524;DHT22;29120;52.006;6.020;2023-03-20T15:41:34;9.90;99.90
43524;DHT22;29120;52.006;6.020;2023-03-20T15:44:07;9.90;99.90
43524;DHT22;29120;52.006;6.020;2023-03-20T15:46:36;9.90;99.90
43524;DHT22;29120;52.006;6.020;2023-03-20T15:49:03;9.80;99.90
43524;DHT22;29120;52.006;6.020;2023-03-20T15:51:28;9.80;99.90
43524;DHT22;29120;52.006;6.020;2023-03-20T15:53:54;9.70;99.90
43524;DHT22;29120;52.006;6.020;2023-03-20T15:56:21;9.70;99.90
43524;DHT22;29120;52.006;6.020;2023-03-20T15:58:49;9.70;99.90
43524;DHT22;29120;52.006;6.020;2023-03-20T16:01:17;9.70;99.90
43524;DHT22;29120;52.006;6.020;2023-03-20T16:03:43;9.60;99.90
43524;DHT22;29120;52.006;6.020;2023-03-20T16:06:10;9.60;99.90
43524;DHT22;29120;52.006;6.020;2023-03-20T16:08:36;9.60;99.90
43524;DHT22;29120;52.006;6.020;2023-03-20T16:11:04;9.60;99.90
43524;DHT22;29120;52.006;6.020;2023-03-20T16:13:31;9.50;99.90
43524;DHT22;29120;52.006;6.020;2023-03-20T16:15:57;9.50;99.90
43524;DHT22;29120;52.006;6.020;2023-03-20T16:18:24;9.50;99.90
43524;DHT22;29120;52.006;6.020;2023-03-20T16:20:52;9.40;99.90
43524;DHT22;29120;52.006;6.020;2023-03-20T16:23:25;9.40;99.90
43524;DHT22;29120;52.006;6.020;2023-03-20T16:25:55;9.40;99.90
43524;DHT22;29120;52.006;6.020;2023-03-20T16:28:21;9.40;99.90
43524;DHT22;29120;52.006;6.020;2023-03-20T16:30:50;9.40;99.90
43524;DHT22;29120;52.006;6.020;2023-03-20T16:33:16;9.40;99.90
43524;DHT22;29120;52.006;6.020;2023-03-20T16:35:43;9.40;99.90
43524;DHT22;29120;52.006;6.020;2023-03-20T16:40:40;9.40;99.90
43524;DHT22;29120;52.006;6.020;2023-03-20T16:43:11;9.40;99.90
43524;DHT22;29120;52.006;6.020;2023-03-20T16:45:38;9.40;99.90
43524;DHT22;29120;52.006;6.020;2023-03-20T16:50:34;9.40;99.90
43524;DHT22;29120;52.006;6.020;2023-03-20T16:53:00;9.40;99.90
43524;DHT22;29120;52.006;6.020;2023-03-20T16:55:27;9.40;99.90
43524;DHT22;29120;52.006;6.020;2023-03-20T16:57:55;9.40;99.90
43524;DHT22;29120;52.006;6.020;2023-03-20T17:02:49;9.50;99.90
43524;DHT22;29120;52.006;6.020;2023-03-20T17:05:17;9.50;99.90
43524;DHT22;29120;52.006;6.020;2023-03-20T17:07:42;9.50;99.90
43524;DHT22;29120;52.006;6.020;2023-03-20T17:12:37;9.60;99.90
43524;DHT22;29120;52.006;6.020;2023-03-20T17:15:03;9.60;99.90
43524;DHT22;29120;52.006;6.020;2023-03-20T17:17:29;9.60;99.90
43524;DHT22;29120;52.006;6.020;2023-03-20T17:19:54;9.50;99.90
43524;DHT22;29120;52.006;6.020;2023-03-20T17:22:21;9.60;99.90
43524;DHT22;29120;52.006;6.020;2023-03-20T17:24:47;9.60;99.90
43524;DHT22;29120;52.006;6.020;2023-03-20T17:27:13;9.60;99.90
43524;DHT22;29120;52.006;6.020;2023-03-20T17:29:39;9.60;99.90
43524;DHT22;29120;52.006;6.020;2023-03-20T17:32:12;9.60;99.90
43524;DHT22;29120;52.006;6.020;2023-03-20T17:34:38;9.50;99.90
43524;DHT22;29120;52.006;6.020;2023-03-20T17:37:04;9.50;99.90
43524;DHT22;29120;52.006;6.020;2023-03-20T17:39:30;9.50;99.90
43524;DHT22;29120;52.006;6.020;2023-03-20T17:41:55;9.60;99.90
43524;DHT22;29120;52.006;6.020;2023-03-20T17:44:21;9.50;99.90
43524;DHT22;29120;52.006;6.020;2023-03-20T17:46:47;9.50;99.90
43524;DHT22;29120;52.006;6.020;2023-03-20T17:49:13;9.60;99.90
43524;DHT22;29120;52.006;6.020;2023-03-20T17:51:39;9.50;99.90
43524;DHT22;29120;52.006;6.020;2023-03-20T17:54:05;9.60;99.90
43524;DHT22;29120;52.006;6.020;2023-03-20T17:56:30;9.60;99.90
43524;DHT22;29120;52.006;6.020;2023-03-20T17:58:57;9.60;99.90
43524;DHT22;29120;52.006;6.020;2023-03-20T18:01:22;9.70;99.90
43524;DHT22;29120;52.006;6.020;2023-03-20T18:03:48;9.70;99.90
43524;DHT22;29120;52.006;6.020;2023-03-20T18:06:15;9.70;99.90
43524;DHT22;29120;52.006;6.020;2023-03-20T18:08:41;9.70;99.90
43524;DHT22;29120;52.006;6.020;2023-03-20T18:11:07;9.80;99.90